Time;durP1;ratioP1;P1;durP2;ratioP2;P2;SDS_P1;SDS_P2;PMS_P1;PMS_P2;Temp;Humidity;BMP_temperature;BMP_pressure;BME280_temperature;BME280_humidity;BME280_pressure;Samples;Min_cycle;Max_cycle;Signal;HPM_P1;HPM_P2
2022/09/16 00:01:33;;;;;;;3.58;0.80;;;13.20;99.90;;;;;;5025992;28;20040;-40
2022/09/16 00:03:58;;;;;;;3.25;0.70;;;13.20;99.90;;;;;;5034791;28;20029;-38
2022/09/16 00:06:26;;;;;;;3.55;0.93;;;13.20;99.90;;;;;;5032611;28;20507;-41
2022/09/16 00:08:53;;;;;;;;;;;13.20;99.90;;;;;;5051317;28;20479;-43
2022/09/16 00:11:19;;;;;;;0.95;0.60;;;13.30;99.90;;;;;;5034079;28;20353;-41
2022/09/16 00:13:45;;;;;;;3.75;0.57;;;13.30;99.90;;;;;;5030318;28;20022;-49
2022/09/16 00:16:17;;;;;;;5.72;0.73;;;13.30;99.90;;;;;;5024470;28;20037;-37
2022/09/16 00:18:42;;;;;;;4.90;0.77;;;13.30;99.90;;;;;;5032607;28;20427;-38
2022/09/16 00:21:09;;;;;;;6.38;1.08;;;13.30;99.90;;;;;;5034272;28;20108;-36
2022/09/16 00:23:36;;;;;;;5.40;0.65;;;13.20;99.90;;;;;;5032832;28;20378;-38
2022/09/16 00:26:02;;;;;;;2.97;0.93;;;13.20;99.90;;;;;;5034044;28;20021;-41
2022/09/16 00:28:28;;;;;;;6.72;0.70;;;13.20;99.90;;;;;;5018777;28;20110;-38
2022/09/16 00:30:57;;;;;;;9.60;0.88;;;13.10;99.90;;;;;;5034006;28;20449;-34
2022/09/16 00:33:22;;;;;;;6.18;0.63;;;13.00;99.90;;;;;;5033879;28;20480;-37
2022/09/16 00:35:48;;;;;;;4.60;0.95;;;12.90;99.90;;;;;;5033687;28;20125;-31
2022/09/16 00:38:14;;;;;;;7.05;1.05;;;12.80;99.90;;;;;;5034265;28;20100;-33
2022/09/16 00:40:48;;;;;;;7.90;0.77;;;12.70;99.90;;;;;;5033547;28;20059;-37
2022/09/16 00:43:16;;;;;;;3.03;0.95;;;12.60;99.90;;;;;;5033565;28;20029;-33
2022/09/16 00:45:44;;;;;;;6.43;1.20;;;12.60;99.90;;;;;;5031936;28;20029;-34
2022/09/16 00:48:17;;;;;;;1.25;0.57;;;12.60;99.90;;;;;;5033954;28;20091;-36
2022/09/16 00:50:47;;;;;;;6.43;0.47;;;12.70;99.90;;;;;;5033455;28;20663;-29
2022/09/16 00:53:32;;;;;;;2.25;0.50;;;12.70;99.90;;;;;;5034245;28;20572;-32
2022/09/16 00:56:01;;;;;;;3.60;0.70;;;12.70;99.90;;;;;;5030045;28;20029;-30
2022/09/16 00:58:36;;;;;;;2.28;0.43;;;12.70;99.90;;;;;;5029439;28;20052;-31
2022/09/16 01:01:04;;;;;;;5.93;0.50;;;12.70;99.90;;;;;;5023648;28;20435;-29
2022/09/16 01:03:33;;;;;;;4.05;0.70;;;12.70;99.90;;;;;;5027275;28;20032;-29
2022/09/16 01:05:59;;;;;;;4.85;0.65;;;12.80;99.90;;;;;;5031419;28;20021;-31
2022/09/16 01:08:24;;;;;;;5.13;0.80;;;12.80;99.90;;;;;;5030928;28;20072;-41
2022/09/16 01:10:50;;;;;;;5.60;0.80;;;12.80;99.90;;;;;;5032312;28;20029;-29
2022/09/16 01:13:16;;;;;;;1.75;0.40;;;12.80;99.90;;;;;;5032512;28;20363;-38
2022/09/16 01:16:22;;;;;;;1.23;0.60;;;12.90;99.90;;;;;;5032538;28;20390;-34
2022/09/16 01:18:50;;;;;;;6.13;0.73;;;12.90;99.90;;;;;;5028182;28;20116;-29
2022/09/16 01:21:31;;;;;;;2.17;0.55;;;12.90;99.90;;;;;;5033604;28;20030;-43
2022/09/16 01:24:10;;;;;;;7.05;0.60;;;12.90;99.90;;;;;;5025620;28;20034;-30
2022/09/16 01:26:44;;;;;;;9.32;1.00;;;12.90;99.90;;;;;;5024295;28;20025;-29
2022/09/16 01:29:47;;;;;;;5.65;0.77;;;12.90;99.90;;;;;;5016421;28;20573;-31
2022/09/16 01:32:31;;;;;;;2.28;0.52;;;12.90;99.90;;;;;;5031900;28;20500;-30
2022/09/16 01:35:28;;;;;;;1.50;0.45;;;12.90;99.90;;;;;;5033247;28;20033;-37
2022/09/16 01:38:22;;;;;;;2.22;0.32;;;12.80;99.90;;;;;;5031912;28;20018;-31
2022/09/16 01:41:12;;;;;;;2.45;0.50;;;12.80;99.90;;;;;;5023171;28;20042;-32
2022/09/16 01:43:55;;;;;;;7.53;0.52;;;12.80;99.90;;;;;;5014776;28;20050;-39
2022/09/16 01:46:38;;;;;;;2.45;0.68;;;12.70;99.90;;;;;;5014471;28;20026;-37
2022/09/16 01:49:21;;;;;;;6.43;1.23;;;12.70;99.90;;;;;;5031355;28;20541;-30
2022/09/16 01:51:58;;;;;;;2.10;0.85;;;12.70;99.90;;;;;;5025985;28;20030;-31
2022/09/16 01:54:59;;;;;;;2.47;0.93;;;12.70;99.90;;;;;;5032301;28;20102;-29
2022/09/16 01:58:00;;;;;;;5.18;1.00;;;12.70;99.90;;;;;;5033086;28;20120;-34
2022/09/16 02:00:26;;;;;;;1.30;0.60;;;12.70;99.90;;;;;;5028423;28;20029;-31
2022/09/16 02:03:01;;;;;;;6.28;0.57;;;12.70;99.90;;;;;;5005196;28;20042;-30
2022/09/16 02:05:41;;;;;;;6.45;1.25;;;12.70;99.90;;;;;;5029652;28;20448;-29
2022/09/16 02:08:13;;;;;;;3.75;0.70;;;12.70;99.90;;;;;;5031196;28;20030;-31
2022/09/16 02:10:57;;;;;;;2.47;0.82;;;12.70;99.90;;;;;;5026353;28;20490;-29
2022/09/16 02:13:28;;;;;;;3.80;0.70;;;12.70;99.90;;;;;;5032570;28;20017;-32
2022/09/16 02:15:59;;;;;;;2.80;0.50;;;12.80;99.90;;;;;;5025761;28;20386;-29
2022/09/16 02:18:30;;;;;;;1.00;0.90;;;12.80;99.90;;;;;;5030712;28;20033;-29
2022/09/16 02:20:59;;;;;;;3.10;0.90;;;12.80;99.90;;;;;;5024412;28;20025;-29
2022/09/16 02:23:32;;;;;;;4.10;1.25;;;12.80;99.90;;;;;;5030390;28;20672;-32
2022/09/16 02:26:01;;;;;;;2.80;1.23;;;12.80;99.90;;;;;;5027602;28;20033;-33
2022/09/16 02:28:33;;;;;;;2.35;0.70;;;12.80;99.90;;;;;;5033223;28;20093;-50
2022/09/16 02:31:04;;;;;;;2.33;0.70;;;12.80;99.90;;;;;;5029761;28;20025;-33
2022/09/16 02:33:34;;;;;;;5.75;1.20;;;12.80;99.90;;;;;;5031517;28;20025;-37
2022/09/16 02:36:03;;;;;;;10.50;2.10;;;12.90;99.90;;;;;;5030153;28;20470;-30
2022/09/16 02:38:35;;;;;;;4.85;0.60;;;12.90;99.90;;;;;;5022260;28;20120;-33
2022/09/16 02:41:02;;;;;;;3.65;0.80;;;12.90;99.90;;;;;;5031823;28;20517;-32
2022/09/16 02:43:28;;;;;;;5.70;1.20;;;12.80;99.90;;;;;;5031002;28;20021;-38
2022/09/16 02:45:58;;;;;;;5.00;0.88;;;12.80;99.90;;;;;;5027299;28;20013;-31
2022/09/16 02:48:49;;;;;;;2.40;0.45;;;12.80;99.90;;;;;;5027092;28;20393;-31
2022/09/16 02:52:02;;;;;;;2.97;0.73;;;12.80;99.90;;;;;;5027311;28;20033;-31
2022/09/16 02:54:52;;;;;;;1.30;0.52;;;12.80;99.90;;;;;;5032153;28;20051;-36
2022/09/16 02:57:18;;;;;;;2.35;0.65;;;12.70;99.90;;;;;;5025952;28;20037;-40
2022/09/16 02:59:44;;;;;;;2.35;0.40;;;12.60;99.90;;;;;;5030081;28;20026;-31
2022/09/16 03:02:10;;;;;;;1.17;0.60;;;12.60;99.90;;;;;;5026506;28;20389;-37
2022/09/16 03:04:36;;;;;;;5.88;0.38;;;12.60;99.90;;;;;;5029403;28;20022;-40
2022/09/16 03:07:04;;;;;;;6.05;0.43;;;12.50;99.90;;;;;;5027465;28;20073;-34
2022/09/16 03:09:33;;;;;;;5.03;0.50;;;12.50;99.90;;;;;;5028535;28;20498;-37
2022/09/16 03:12:04;;;;;;;0.90;0.35;;;12.50;99.90;;;;;;5029637;28;20028;-30
2022/09/16 03:14:52;;;;;;;0.80;0.45;;;12.40;99.90;;;;;;5031373;28;20383;-32
2022/09/16 03:17:45;;;;;;;3.40;0.50;;;12.40;99.90;;;;;;5030598;28;20040;-33
2022/09/16 03:20:40;;;;;;;1.65;0.45;;;12.40;99.90;;;;;;5027832;28;20030;-33
2022/09/16 03:23:25;;;;;;;2.45;1.10;;;12.40;99.90;;;;;;5031013;28;20556;-35
2022/09/16 03:26:20;;;;;;;3.25;0.40;;;12.40;99.90;;;;;;5028037;28;20055;-34
2022/09/16 03:29:12;;;;;;;1.90;0.60;;;12.40;99.90;;;;;;5031163;28;20358;-37
2022/09/16 03:32:17;;;;;;;2.10;0.43;;;12.40;99.90;;;;;;5030179;28;20026;-34
2022/09/16 03:35:12;;;;;;;3.15;0.50;;;12.40;99.90;;;;;;5026350;28;20029;-34
2022/09/16 03:37:39;;;;;;;4.85;0.82;;;12.40;99.90;;;;;;5026274;28;20045;-31
2022/09/16 03:40:10;;;;;;;1.25;0.60;;;12.40;99.90;;;;;;5034450;28;20048;-34
2022/09/16 03:42:40;;;;;;;7.45;0.60;;;12.40;99.90;;;;;;5035486;28;20033;-33
2022/09/16 03:45:08;;;;;;;1.27;0.50;;;12.50;99.90;;;;;;5033702;28;20504;-35
2022/09/16 03:47:34;;;;;;;4.55;0.45;;;12.40;99.90;;;;;;5028872;28;20458;-32
2022/09/16 03:49:59;;;;;;;3.83;0.50;;;12.40;99.90;;;;;;5033628;28;20021;-33
2022/09/16 03:52:25;;;;;;;4.85;0.90;;;12.40;99.90;;;;;;5034389;28;20493;-32
2022/09/16 03:54:51;;;;;;;2.53;0.70;;;12.40;99.90;;;;;;5035272;28;20025;-32
2022/09/16 03:57:16;;;;;;;2.47;0.70;;;12.40;99.90;;;;;;5026120;28;20034;-31
2022/09/16 03:59:42;;;;;;;4.75;1.35;;;12.40;99.90;;;;;;5030747;28;20112;-30
2022/09/16 04:02:07;;;;;;;11.13;0.50;;;12.40;99.90;;;;;;5028411;28;20478;-33
2022/09/16 04:04:33;;;;;;;6.25;1.00;;;12.40;99.90;;;;;;5032141;28;20018;-34
2022/09/16 04:06:59;;;;;;;5.05;0.52;;;12.40;99.90;;;;;;5034204;28;20389;-29
2022/09/16 04:09:24;;;;;;;8.30;0.65;;;12.40;99.90;;;;;;5035037;28;20021;-33
2022/09/16 04:11:50;;;;;;;0.45;0.30;;;12.40;99.90;;;;;;5030192;28;20048;-36
2022/09/16 04:14:15;;;;;;;2.38;0.50;;;12.40;99.90;;;;;;5027821;28;20037;-38
2022/09/16 04:16:41;;;;;;;3.83;0.50;;;12.40;99.90;;;;;;5031578;28;20040;-36
2022/09/16 04:19:08;;;;;;;4.15;0.43;;;12.40;99.90;;;;;;5034936;28;20083;-31
2022/09/16 04:21:34;;;;;;;11.40;1.00;;;12.40;99.90;;;;;;5031446;28;20022;-31
2022/09/16 04:24:00;;;;;;;3.42;0.40;;;12.40;99.90;;;;;;5033462;28;20112;-32
2022/09/16 04:26:25;;;;;;;2.83;0.35;;;12.30;99.90;;;;;;5032725;28;20440;-35
2022/09/16 04:28:53;;;;;;;1.55;0.60;;;12.30;99.90;;;;;;5033473;28;20035;-51
2022/09/16 04:31:19;;;;;;;;;;;12.30;99.90;;;;;;5026635;28;20026;-37
2022/09/16 04:33:45;;;;;;;2.65;0.28;;;12.20;99.90;;;;;;5024466;28;20376;-37
2022/09/16 04:36:16;;;;;;;1.48;0.50;;;12.20;99.90;;;;;;5032360;28;20057;-37
2022/09/16 04:38:44;;;;;;;11.30;0.68;;;12.20;99.90;;;;;;5034873;28;20045;-38
2022/09/16 04:41:20;;;;;;;3.05;0.57;;;12.20;99.90;;;;;;5032429;28;20076;-37
2022/09/16 04:43:51;;;;;;;4.53;0.68;;;12.10;99.90;;;;;;5027697;28;20422;-37
2022/09/16 04:46:17;;;;;;;3.53;0.60;;;12.10;99.90;;;;;;5032873;28;20399;-37
2022/09/16 04:48:45;;;;;;;2.67;0.50;;;12.10;99.90;;;;;;5025836;28;20026;-39
2022/09/16 04:51:11;;;;;;;1.80;0.63;;;12.10;99.90;;;;;;5032526;28;20469;-38
2022/09/16 04:53:38;;;;;;;5.75;0.90;;;12.00;99.90;;;;;;5034207;28;20078;-38
2022/09/16 04:56:14;;;;;;;6.03;0.80;;;12.00;99.90;;;;;;5033332;28;20033;-38
2022/09/16 04:58:43;;;;;;;3.20;0.47;;;12.00;99.90;;;;;;5034131;28;20367;-38
2022/09/16 05:01:14;;;;;;;1.45;0.65;;;12.00;99.90;;;;;;5034186;28;20029;-48
2022/09/16 05:03:41;;;;;;;4.88;0.60;;;12.00;99.90;;;;;;5033288;28;20044;-37
2022/09/16 05:06:09;;;;;;;2.03;0.68;;;12.00;99.90;;;;;;5034252;28;20493;-38
2022/09/16 05:08:35;;;;;;;;;;;12.00;99.90;;;;;;5032909;28;20032;-39
2022/09/16 05:11:27;;;;;;;4.60;0.90;;;12.00;99.90;;;;;;5032516;28;20302;-39
2022/09/16 05:13:57;;;;;;;0.75;0.60;;;12.00;99.90;;;;;;5021519;28;20033;-41
2022/09/16 05:16:23;;;;;;;3.70;0.77;;;12.00;99.90;;;;;;5027273;28;20030;-38
2022/09/16 05:18:52;;;;;;;1.50;0.88;;;12.00;99.90;;;;;;5027421;28;20045;-38
2022/09/16 05:21:20;;;;;;;3.58;0.77;;;12.00;99.90;;;;;;5027433;28;20034;-37
2022/09/16 05:23:46;;;;;;;;;;;12.00;99.90;;;;;;5032988;28;20402;-41
2022/09/16 05:26:14;;;;;;;3.30;0.80;;;12.00;99.90;;;;;;5033193;28;19966;-39
2022/09/16 05:28:40;;;;;;;2.50;1.40;;;12.10;99.90;;;;;;5030352;28;20474;-38
2022/09/16 05:31:25;;;;;;;2.85;1.02;;;12.10;99.90;;;;;;5025340;28;20088;-41
2022/09/16 05:34:00;;;;;;;6.28;1.05;;;12.00;99.90;;;;;;5030530;28;20026;-39
2022/09/16 05:36:28;;;;;;;5.97;1.00;;;12.00;99.90;;;;;;5041562;28;20071;-39
2022/09/16 05:38:55;;;;;;;;;;;12.00;99.90;;;;;;5048975;28;20397;-39
2022/09/16 05:41:21;;;;;;;1.75;0.80;;;12.00;99.90;;;;;;5033066;28;20364;-38
2022/09/16 05:43:47;;;;;;;9.00;1.10;;;12.00;99.90;;;;;;5032336;28;20473;-38
2022/09/16 05:46:18;;;;;;;0.80;0.57;;;12.00;99.90;;;;;;5032290;28;20026;-38
2022/09/16 05:48:44;;;;;;;6.97;0.93;;;11.90;99.90;;;;;;5032477;28;20029;-38
2022/09/16 05:51:13;;;;;;;2.97;0.70;;;11.90;99.90;;;;;;5031203;28;20474;-39
2022/09/16 05:53:39;;;;;;;1.70;0.60;;;11.90;99.90;;;;;;5032743;28;20532;-37
2022/09/16 05:56:09;;;;;;;5.07;1.05;;;11.90;99.90;;;;;;5033172;28;20053;-38
2022/09/16 05:58:35;;;;;;;3.05;0.68;;;11.90;99.90;;;;;;5031049;28;20444;-38
2022/09/16 06:01:09;;;;;;;4.00;0.90;;;11.90;99.90;;;;;;5024000;28;20022;-38
2022/09/16 06:03:37;;;;;;;2.08;0.68;;;11.90;99.90;;;;;;5032503;28;20033;-36
2022/09/16 06:06:17;;;;;;;2.97;0.73;;;12.00;99.90;;;;;;5031498;28;20517;-38
2022/09/16 06:08:43;;;;;;;3.78;0.77;;;12.10;99.90;;;;;;5032282;28;20115;-38
2022/09/16 06:11:10;;;;;;;6.82;1.70;;;12.10;99.90;;;;;;5033067;28;20029;-38
2022/09/16 06:13:36;;;;;;;3.67;0.73;;;12.20;99.90;;;;;;5030662;28;20029;-38
2022/09/16 06:16:03;;;;;;;2.42;0.75;;;12.20;99.90;;;;;;5031132;28;20458;-37
2022/09/16 06:18:32;;;;;;;1.05;0.50;;;12.20;99.90;;;;;;5032316;28;20121;-43
2022/09/16 06:21:09;;;;;;;4.75;0.70;;;12.20;99.90;;;;;;5031872;28;20389;-42
2022/09/16 06:23:36;;;;;;;8.50;1.00;;;12.20;99.90;;;;;;5031039;28;20469;-61
2022/09/16 06:26:07;;;;;;;6.18;1.00;;;12.20;99.90;;;;;;5027489;28;20025;-37
2022/09/16 06:28:34;;;;;;;3.97;0.60;;;12.20;99.90;;;;;;5032031;28;20116;-39
2022/09/16 06:31:14;;;;;;;5.65;1.50;;;12.30;99.90;;;;;;5028768;28;20105;-37
2022/09/16 06:33:40;;;;;;;4.90;1.23;;;12.30;99.90;;;;;;5029748;28;20025;-38
2022/09/16 06:36:09;;;;;;;1.55;0.80;;;12.40;99.90;;;;;;5029745;28;20037;-40
2022/09/16 06:38:35;;;;;;;2.22;0.77;;;12.50;99.90;;;;;;5026621;28;20075;-34
2022/09/16 06:41:02;;;;;;;16.58;1.23;;;12.50;99.90;;;;;;5028476;28;20029;-38
2022/09/16 06:43:28;;;;;;;8.82;1.23;;;12.60;99.90;;;;;;5033271;28;20026;-38
2022/09/16 06:46:15;;;;;;;5.10;0.93;;;12.70;99.90;;;;;;5033206;28;20022;-39
2022/09/16 06:48:42;;;;;;;7.28;1.02;;;12.80;99.90;;;;;;5033120;28;20032;-38
2022/09/16 06:51:27;;;;;;;9.23;0.80;;;12.80;99.90;;;;;;5030485;28;20097;-38
2022/09/16 06:53:58;;;;;;;7.85;1.08;;;12.70;99.90;;;;;;5028398;28;20029;-39
2022/09/16 06:56:24;;;;;;;8.60;1.08;;;12.60;99.90;;;;;;5023948;28;20022;-39
2022/09/16 06:58:52;;;;;;;2.30;0.60;;;12.60;99.90;;;;;;5020798;28;20397;-39
2022/09/16 07:01:19;;;;;;;;;;;12.50;99.90;;;;;;5031210;28;20030;-38
2022/09/16 07:03:46;;;;;;;2.90;0.75;;;12.50;99.90;;;;;;5015154;28;19936;-39
2022/09/16 07:06:13;;;;;;;5.05;0.65;;;12.40;99.90;;;;;;5015371;28;20018;-40
2022/09/16 07:08:40;;;;;;;10.88;1.05;;;12.40;99.90;;;;;;5031214;28;20028;-42
2022/09/16 07:11:18;;;;;;;8.48;0.80;;;12.40;99.90;;;;;;5031230;28;20105;-44
2022/09/16 07:13:48;;;;;;;5.15;1.10;;;12.40;99.90;;;;;;5031728;28;20056;-46
2022/09/16 07:16:19;;;;;;;1.80;0.52;;;12.50;99.90;;;;;;5032022;28;20122;-62
2022/09/16 07:18:47;;;;;;;5.53;1.00;;;12.60;99.90;;;;;;5028555;28;20553;-39
2022/09/16 07:21:17;;;;;;;2.03;0.57;;;12.70;99.90;;;;;;5029500;28;20541;-40
2022/09/16 07:24:02;;;;;;;9.90;1.10;;;12.80;99.90;;;;;;5030752;28;20379;-40
2022/09/16 07:26:30;;;;;;;5.60;1.10;;;12.80;99.90;;;;;;5032089;28;20029;-41
2022/09/16 07:28:59;;;;;;;3.15;0.80;;;13.00;99.90;;;;;;5038789;28;20159;-40
2022/09/16 07:31:26;;;;;;;1.05;0.70;;;13.10;99.90;;;;;;5029672;28;20469;-40
2022/09/16 07:33:54;;;;;;;1.27;0.40;;;13.20;99.90;;;;;;5031380;28;20025;-40
2022/09/16 07:36:25;;;;;;;4.40;0.55;;;13.30;99.90;;;;;;5029070;28;20025;-40
2022/09/16 07:38:51;;;;;;;5.88;0.88;;;13.30;99.90;;;;;;5027745;28;20504;-39
2022/09/16 07:41:22;;;;;;;5.57;1.02;;;13.30;99.90;;;;;;5031213;28;20017;-39
2022/09/16 07:43:48;;;;;;;3.35;0.50;;;13.30;99.90;;;;;;5022967;28;20061;-39
2022/09/16 07:46:15;;;;;;;4.55;0.68;;;13.30;99.90;;;;;;5026176;28;20077;-55
2022/09/16 07:48:42;;;;;;;16.70;1.85;;;13.40;99.90;;;;;;5022187;28;20032;-36
2022/09/16 07:51:16;;;;;;;1.00;0.50;;;13.50;99.90;;;;;;5052694;28;20469;-39
2022/09/16 07:53:43;;;;;;;4.13;0.55;;;13.70;99.90;;;;;;5030898;28;20470;-37
2022/09/16 07:56:15;;;;;;;5.85;0.77;;;13.70;99.90;;;;;;5029899;28;20089;-37
2022/09/16 07:58:41;;;;;;;3.22;0.55;;;13.70;99.90;;;;;;5044386;28;20430;-40
2022/09/16 08:01:08;;;;;;;3.67;0.50;;;13.50;99.90;;;;;;5022868;28;20030;-39
2022/09/16 08:03:34;;;;;;;1.38;0.30;;;13.30;99.90;;;;;;5025981;28;20033;-38
2022/09/16 08:06:02;;;;;;;2.90;0.40;;;13.10;99.90;;;;;;5031015;28;20071;-39
2022/09/16 08:08:28;;;;;;;2.65;0.57;;;12.90;99.90;;;;;;5033122;28;20033;-38
2022/09/16 08:10:55;;;;;;;2.63;0.30;;;12.70;99.90;;;;;;5027069;28;20470;-38
2022/09/16 08:13:21;;;;;;;1.48;0.35;;;12.50;99.90;;;;;;5031028;28;20024;-39
2022/09/16 08:15:47;;;;;;;1.40;0.32;;;12.30;99.90;;;;;;5024208;28;20022;-39
2022/09/16 08:18:12;;;;;;;2.75;0.45;;;12.10;99.90;;;;;;5015528;28;20029;-39
2022/09/16 08:20:38;;;;;;;3.78;0.90;;;12.10;99.90;;;;;;5032895;28;20687;-39
2022/09/16 08:23:03;;;;;;;1.00;0.40;;;12.00;99.90;;;;;;5035086;28;20101;-38
2022/09/16 08:25:29;;;;;;;1.63;0.38;;;12.00;99.90;;;;;;5027794;28;20049;-38
2022/09/16 08:27:55;;;;;;;0.80;0.25;;;12.00;99.90;;;;;;5033226;28;20045;-39
2022/09/16 08:30:20;;;;;;;3.38;0.70;;;12.10;99.90;;;;;;5030807;28;20389;-39
2022/09/16 08:32:46;;;;;;;6.78;0.77;;;12.20;99.90;;;;;;5034033;28;20030;-39
2022/09/16 08:35:13;;;;;;;1.88;0.50;;;12.30;99.90;;;;;;5034412;28;20064;-38
2022/09/16 08:37:40;;;;;;;7.13;0.65;;;12.50;99.90;;;;;;5035820;28;20489;-39
2022/09/16 08:40:06;;;;;;;1.77;0.47;;;12.70;99.90;;;;;;5032375;28;20069;-37
2022/09/16 08:42:56;;;;;;;2.53;0.38;;;13.00;99.90;;;;;;5035720;28;20473;-39
2022/09/16 08:45:32;;;;;;;2.08;0.52;;;13.30;99.90;;;;;;5033522;28;20045;-39
2022/09/16 08:48:37;;;;;;;1.42;0.30;;;13.30;99.90;;;;;;5034151;28;20029;-40
2022/09/16 08:51:04;;;;;;;1.52;0.40;;;13.30;99.90;;;;;;5035201;28;20106;-40
2022/09/16 08:53:36;;;;;;;3.22;0.82;;;13.30;99.90;;;;;;5030665;28;20382;-40
2022/09/16 08:56:10;;;;;;;3.30;0.65;;;13.30;99.90;;;;;;5034149;28;20087;-41
2022/09/16 08:58:47;;;;;;;4.75;0.82;;;13.30;99.90;;;;;;5033613;28;20489;-42
2022/09/16 09:01:22;;;;;;;5.95;0.68;;;13.40;99.90;;;;;;5033893;28;20025;-40
2022/09/16 09:03:48;;;;;;;4.68;0.60;;;13.30;99.90;;;;;;5033284;28;20425;-40
2022/09/16 09:06:31;;;;;;;6.65;0.88;;;13.20;99.90;;;;;;5032748;28;20373;-58
2022/09/16 09:09:35;;;;;;;2.78;0.43;;;12.90;99.90;;;;;;5034706;28;20032;-40
2022/09/16 09:12:03;;;;;;;2.45;0.70;;;12.60;99.90;;;;;;5031889;28;20052;-40
2022/09/16 09:14:40;;;;;;;1.52;0.30;;;12.40;99.90;;;;;;5030873;28;20123;-40
2022/09/16 09:17:29;;;;;;;1.23;0.40;;;12.30;99.90;;;;;;5030930;28;20083;-39
2022/09/16 09:20:32;;;;;;;2.03;0.75;;;12.20;99.90;;;;;;5032704;28;20416;-39
2022/09/16 09:23:11;;;;;;;0.95;0.38;;;12.30;99.90;;;;;;5025739;28;20049;-40
2022/09/16 09:25:56;;;;;;;4.85;0.40;;;12.40;99.90;;;;;;5018349;28;20497;-39
2022/09/16 09:28:39;;;;;;;5.13;0.70;;;12.70;99.90;;;;;;5033590;28;20385;-38
2022/09/16 09:31:20;;;;;;;3.63;0.30;;;12.90;99.90;;;;;;5033631;28;20056;-37
2022/09/16 09:34:03;;;;;;;3.60;1.17;;;12.90;99.90;;;;;;5031635;28;20482;-38
2022/09/16 09:36:49;;;;;;;1.80;0.40;;;12.80;99.90;;;;;;5032820;28;20037;-40
2022/09/16 09:39:26;;;;;;;2.58;0.90;;;12.90;99.90;;;;;;5033391;28;20119;-40
2022/09/16 09:41:59;;;;;;;3.33;0.57;;;13.20;99.90;;;;;;5026693;28;20025;-47
2022/09/16 09:44:43;;;;;;;0.45;0.40;;;13.50;99.90;;;;;;5028829;28;20056;-40
2022/09/16 09:47:38;;;;;;;2.35;0.80;;;13.70;99.90;;;;;;5026421;28;20108;-38
2022/09/16 09:50:22;;;;;;;3.42;1.08;;;13.90;99.90;;;;;;5024021;28;20021;-52
2022/09/16 09:53:04;;;;;;;1.17;0.40;;;13.90;99.90;;;;;;5029106;28;20041;-40
2022/09/16 09:55:34;;;;;;;3.90;0.57;;;14.20;99.90;;;;;;5030590;28;20052;-39
2022/09/16 09:58:12;;;;;;;2.22;0.38;;;14.30;99.90;;;;;;5031699;28;20505;-38
2022/09/16 10:00:37;;;;;;;;;;;14.30;99.90;;;;;;5022712;28;20091;-38
2022/09/16 10:03:09;;;;;;;0.32;0.30;;;14.30;99.90;;;;;;5033864;28;19987;-39
2022/09/16 10:05:34;;;;;;;4.25;0.43;;;14.50;99.90;;;;;;5033762;28;20030;-59
2022/09/16 10:08:12;;;;;;;7.10;0.80;;;14.70;99.90;;;;;;5033778;28;20080;-43
2022/09/16 10:10:49;;;;;;;2.65;0.30;;;14.80;99.90;;;;;;5033823;28;20029;-44
2022/09/16 10:13:16;;;;;;;2.45;0.90;;;14.70;99.90;;;;;;5033735;28;20025;-41
2022/09/16 10:15:42;;;;;;;11.55;0.65;;;14.50;99.90;;;;;;5033535;28;20044;-40
2022/09/16 10:18:25;;;;;;;0.98;0.50;;;14.10;99.90;;;;;;5023276;28;20397;-41
2022/09/16 10:21:06;;;;;;;1.13;0.45;;;13.80;99.90;;;;;;5014092;28;20029;-40
2022/09/16 10:23:33;;;;;;;2.33;0.10;;;13.50;99.90;;;;;;5013749;28;20036;-41
2022/09/16 10:26:19;;;;;;;1.52;0.30;;;13.40;99.90;;;;;;5013822;28;20301;-39
2022/09/16 10:29:00;;;;;;;1.08;0.20;;;13.20;99.90;;;;;;5012579;28;20394;-39
2022/09/16 10:31:30;;;;;;;3.13;0.30;;;13.00;99.90;;;;;;5013729;28;20026;-48
2022/09/16 10:33:58;;;;;;;1.75;0.20;;;12.90;99.90;;;;;;5014515;28;20026;-47
2022/09/16 10:36:27;;;;;;;;;;;13.00;99.90;;;;;;5033722;28;20021;-40
2022/09/16 10:38:59;;;;;;;0.47;0.20;;;12.90;99.90;;;;;;5033019;28;19917;-40
2022/09/16 10:41:26;;;;;;;0.52;0.50;;;12.80;99.90;;;;;;5032005;28;20046;-44
2022/09/16 10:44:05;;;;;;;3.85;0.55;;;12.80;99.90;;;;;;5032135;28;20032;-39
2022/09/16 10:46:31;;;;;;;2.72;0.35;;;12.80;99.90;;;;;;5033247;28;20032;-39
2022/09/16 10:49:01;;;;;;;3.55;0.40;;;12.80;99.90;;;;;;5033081;28;20390;-38
2022/09/16 10:51:33;;;;;;;1.20;0.40;;;12.80;99.90;;;;;;5031516;28;20017;-40
2022/09/16 10:54:01;;;;;;;1.67;0.32;;;12.90;99.90;;;;;;5042471;28;20072;-41
2022/09/16 10:56:53;;;;;;;2.53;0.47;;;13.00;99.90;;;;;;5021509;28;20025;-41
2022/09/16 10:59:19;;;;;;;1.20;0.50;;;13.30;99.90;;;;;;5012367;28;20042;-47
2022/09/16 11:02:22;;;;;;;2.83;0.30;;;13.60;99.90;;;;;;5018579;28;20064;-43
2022/09/16 11:04:47;;;;;;;6.35;1.40;;;14.10;99.90;;;;;;5013119;28;20372;-40
2022/09/16 11:07:41;;;;;;;0.93;0.50;;;14.60;99.90;;;;;;5028281;28;20033;-37
2022/09/16 11:10:12;;;;;;;2.40;0.60;;;15.10;99.90;;;;;;5031985;28;20439;-33
2022/09/16 11:13:10;;;;;;;1.25;0.32;;;15.30;99.90;;;;;;5032844;28;20037;-35
2022/09/16 11:15:44;;;;;;;2.10;0.40;;;15.30;99.90;;;;;;5024585;28;20033;-37
2022/09/16 11:18:28;;;;;;;2.80;0.35;;;15.20;99.90;;;;;;5032818;28;20543;-37
2022/09/16 11:21:11;;;;;;;1.77;0.52;;;14.90;99.90;;;;;;5032648;28;20474;-37
2022/09/16 11:24:01;;;;;;;0.82;0.30;;;14.50;99.90;;;;;;5031495;28;20076;-33
2022/09/16 11:26:46;;;;;;;5.97;0.55;;;14.00;99.90;;;;;;5032132;28;20056;-34
2022/09/16 11:29:53;;;;;;;3.00;0.50;;;13.20;99.90;;;;;;5032622;28;20559;-32
2022/09/16 11:32:51;;;;;;;4.53;0.50;;;12.60;99.90;;;;;;5022429;28;20041;-28
2022/09/16 11:35:22;;;;;;;;;;;12.30;99.90;;;;;;5024524;28;20060;-36
2022/09/16 11:38:15;;;;;;;1.50;0.57;;;12.20;99.90;;;;;;5032594;28;19905;-33
2022/09/16 11:41:04;;;;;;;2.10;0.43;;;12.30;99.90;;;;;;5032277;28;20050;-37
2022/09/16 11:44:22;;;;;;;2.30;0.52;;;12.40;99.90;;;;;;5031913;28;20108;-32
2022/09/16 11:47:18;;;;;;;6.95;2.00;;;12.60;99.90;;;;;;5010529;28;20450;-31
2022/09/16 11:50:08;;;;;;;1.58;0.63;;;12.80;99.90;;;;;;5032238;28;20018;-33
2022/09/16 11:53:06;;;;;;;2.10;0.50;;;12.90;99.90;;;;;;5032351;28;20026;-31
2022/09/16 11:55:47;;;;;;;;;;;13.00;99.90;;;;;;5033662;28;20037;-36
2022/09/16 11:58:18;;;;;;;0.93;0.30;;;13.20;99.90;;;;;;5036389;28;20388;-31
2022/09/16 12:00:47;;;;;;;4.57;0.80;;;13.60;99.90;;;;;;5035636;28;20032;-38
2022/09/16 12:03:27;;;;;;;2.53;0.65;;;13.80;99.90;;;;;;5029386;28;20196;-36
2022/09/16 12:06:03;;;;;;;5.32;0.70;;;14.10;99.90;;;;;;5027790;28;20025;-38
2022/09/16 12:08:39;;;;;;;6.10;0.70;;;14.40;99.90;;;;;;5034558;28;20021;-37
2022/09/16 12:11:37;;;;;;;5.43;0.65;;;14.70;99.90;;;;;;5028490;28;20532;-38
2022/09/16 12:14:19;;;;;;;3.83;0.47;;;15.10;99.90;;;;;;5023189;28;20042;-38
2022/09/16 12:16:50;;;;;;;5.82;1.05;;;15.20;99.90;;;;;;5030551;28;20513;-39
2022/09/16 12:19:37;;;;;;;5.43;0.90;;;15.10;99.90;;;;;;5022356;28;20083;-37
2022/09/16 12:22:05;;;;;;;;;;;14.80;99.90;;;;;;5036474;28;20409;-40
2022/09/16 12:24:49;;;;;;;;;;;15.00;99.90;;;;;;5036071;28;19948;-40
2022/09/16 12:27:41;;;;;;;4.43;0.60;;;15.40;99.90;;;;;;5035689;28;19905;-39
2022/09/16 12:30:27;;;;;;;5.30;0.60;;;15.70;99.90;;;;;;5034038;28;20520;-39
2022/09/16 12:33:28;;;;;;;1.92;0.68;;;15.70;99.90;;;;;;5035239;28;20029;-40
2022/09/16 12:36:23;;;;;;;9.00;1.13;;;15.60;99.90;;;;;;5016142;28;20467;-38
2022/09/16 12:38:48;;;;;;;5.90;1.08;;;15.50;99.90;;;;;;5014833;28;20041;-39
2022/09/16 12:41:34;;;;;;;7.55;1.55;;;15.20;99.90;;;;;;5016122;28;20025;-40
2022/09/16 12:44:34;;;;;;;4.10;0.65;;;15.10;99.90;;;;;;5015540;28;20033;-40
2022/09/16 12:47:12;;;;;;;2.65;1.15;;;14.50;99.90;;;;;;5031114;28;20123;-40
2022/09/16 12:49:58;;;;;;;7.57;0.85;;;14.00;99.90;;;;;;5015491;28;20033;-40
2022/09/16 12:52:53;;;;;;;5.40;1.02;;;13.90;99.90;;;;;;5015562;28;20104;-42
2022/09/16 12:55:43;;;;;;;4.13;1.05;;;13.90;99.90;;;;;;5015424;28;20026;-39
2022/09/16 12:58:18;;;;;;;4.90;0.68;;;14.00;99.90;;;;;;5015345;28;20054;-44
2022/09/16 13:01:02;;;;;;;12.10;1.10;;;13.90;99.90;;;;;;5015240;28;20486;-39
2022/09/16 13:03:32;;;;;;;8.10;1.38;;;13.90;99.90;;;;;;5015265;28;20030;-42
2022/09/16 13:06:01;;;;;;;9.98;1.02;;;14.00;99.90;;;;;;5015476;28;20026;-38
2022/09/16 13:08:30;;;;;;;10.23;1.35;;;14.20;99.90;;;;;;5027609;28;20377;-39
2022/09/16 13:11:06;;;;;;;6.07;1.33;;;14.40;99.90;;;;;;5034843;28;20492;-39
2022/09/16 13:13:39;;;;;;;5.05;1.27;;;14.70;99.90;;;;;;5033598;28;20037;-40
2022/09/16 13:16:07;;;;;;;8.77;1.08;;;15.20;99.90;;;;;;5034940;28;20108;-40
2022/09/16 13:18:44;;;;;;;5.50;1.75;;;15.60;99.90;;;;;;5035151;28;20033;-40
2022/09/16 13:21:45;;;;;;;9.25;0.88;;;16.00;99.90;;;;;;5033459;28;20025;-41
2022/09/16 13:24:19;;;;;;;5.10;0.88;;;16.10;99.90;;;;;;5032601;28;20053;-39
2022/09/16 13:26:45;;;;;;;8.55;1.30;;;16.30;99.90;;;;;;5034942;28;20017;-44
2022/09/16 13:29:38;;;;;;;13.93;1.58;;;16.40;99.90;;;;;;5034573;28;20367;-40